createdAt,value
2022-11-25T00:00:54.703Z,94.70
2022-11-25T00:03:21.540Z,94.50
2022-11-25T00:05:48.421Z,94.40
2022-11-25T00:08:15.157Z,94.40
2022-11-25T00:10:41.940Z,94.50
2022-11-25T00:13:08.665Z,94.50
2022-11-25T00:15:35.528Z,94.70
2022-11-25T00:18:02.319Z,94.50
2022-11-25T00:20:29.109Z,94.50
2022-11-25T00:22:55.877Z,94.50
2022-11-25T00:25:22.655Z,94.60
2022-11-25T00:27:51.975Z,94.60
2022-11-25T00:30:18.828Z,94.50
2022-11-25T00:32:45.571Z,94.50
2022-11-25T00:35:12.395Z,94.50
2022-11-25T00:37:40.274Z,94.50
2022-11-25T00:40:07.360Z,94.50
2022-11-25T00:42:52.958Z,94.50
2022-11-25T00:45:19.748Z,94.40
2022-11-25T00:47:46.548Z,94.30
2022-11-25T00:50:13.429Z,94.00
2022-11-25T00:52:40.833Z,93.70
2022-11-25T00:55:07.904Z,93.70
2022-11-25T00:57:34.762Z,93.60
2022-11-25T01:00:01.598Z,93.60
2022-11-25T01:02:28.441Z,93.40
2022-11-25T01:04:55.319Z,93.40
2022-11-25T01:07:22.174Z,93.40
2022-11-25T01:09:49.430Z,93.40
2022-11-25T01:12:16.223Z,93.40
2022-11-25T01:14:43.064Z,93.10
2022-11-25T01:17:09.805Z,93.00
2022-11-25T01:19:40.494Z,93.00
2022-11-25T01:22:07.953Z,92.90
2022-11-25T01:24:35.245Z,92.50
2022-11-25T01:27:02.264Z,92.50
2022-11-25T01:32:22.200Z,92.50
2022-11-25T01:37:50.201Z,92.00
2022-11-25T01:40:17.430Z,92.30
2022-11-25T01:42:47.296Z,92.00
2022-11-25T01:45:26.683Z,92.10
2022-11-25T01:47:59.573Z,92.00
2022-11-25T01:53:31.300Z,92.10
2022-11-25T01:56:00.313Z,91.60
2022-11-25T01:58:28.796Z,91.60
2022-11-25T02:00:55.762Z,91.60
2022-11-25T02:03:24.195Z,91.80
2022-11-25T02:05:52.832Z,91.80
2022-11-25T02:08:19.649Z,91.80
2022-11-25T02:10:46.905Z,91.80
2022-11-25T02:13:13.669Z,91.90
2022-11-25T02:15:40.469Z,91.90
2022-11-25T02:18:07.310Z,91.90
2022-11-25T02:20:35.066Z,92.00
2022-11-25T02:23:01.931Z,92.00
2022-11-25T02:25:29.703Z,92.20
2022-11-25T02:28:03.179Z,92.10
2022-11-25T02:30:30.036Z,92.40
2022-11-25T02:32:57.854Z,92.40
2022-11-25T02:35:24.830Z,92.40
2022-11-25T02:37:51.748Z,92.50
2022-11-25T02:40:18.585Z,92.60
2022-11-25T02:42:45.485Z,92.50
2022-11-25T02:45:13.329Z,92.40
2022-11-25T02:47:40.087Z,92.50
2022-11-25T02:50:07.369Z,92.40
2022-11-25T02:52:34.476Z,92.70
2022-11-25T02:55:01.305Z,92.60
2022-11-25T02:57:28.767Z,92.40
2022-11-25T02:59:55.572Z,92.60
2022-11-25T03:02:22.620Z,92.40
2022-11-25T03:04:49.486Z,92.40
2022-11-25T03:07:19.449Z,92.80
2022-11-25T03:09:46.922Z,92.60
2022-11-25T03:12:19.579Z,92.70
2022-11-25T03:14:46.399Z,92.70
2022-11-25T03:17:16.342Z,92.50
2022-11-25T03:19:43.178Z,92.60
2022-11-25T03:22:11.862Z,92.70
2022-11-25T03:24:39.273Z,92.70
2022-11-25T03:27:06.060Z,92.70
2022-11-25T03:29:32.865Z,92.80
2022-11-25T03:32:03.260Z,92.80
2022-11-25T03:34:32.748Z,93.20
2022-11-25T03:36:59.824Z,93.20
2022-11-25T03:39:29.499Z,93.30
2022-11-25T03:41:56.733Z,93.30
2022-11-25T03:44:23.638Z,93.50
2022-11-25T03:46:51.747Z,93.40
2022-11-25T03:49:18.670Z,93.30
2022-11-25T03:51:45.461Z,93.30
2022-11-25T03:54:13.457Z,93.30
2022-11-25T03:57:11.627Z,93.30
2022-11-25T03:59:38.450Z,93.30
2022-11-25T04:02:06.092Z,93.30
2022-11-25T04:04:33.205Z,93.30
2022-11-25T04:07:00.535Z,93.30
2022-11-25T04:09:27.404Z,93.30
2022-11-25T04:12:15.205Z,93.30
2022-11-25T04:14:50.067Z,93.30
2022-11-25T04:17:16.907Z,93.30
2022-11-25T04:19:44.714Z,93.30
2022-11-25T04:22:12.452Z,93.30
2022-11-25T04:24:43.030Z,93.30
2022-11-25T04:27:12.112Z,93.30
2022-11-25T04:29:38.839Z,93.30
2022-11-25T04:32:05.705Z,93.30
2022-11-25T04:34:32.889Z,93.30
2022-11-25T04:37:00.375Z,93.30
2022-11-25T04:39:29.269Z,93.30
2022-11-25T04:42:18.071Z,93.30
2022-11-25T04:45:01.076Z,93.30
2022-11-25T04:47:29.506Z,93.30
2022-11-25T04:49:56.404Z,93.20
2022-11-25T04:52:23.352Z,93.20
2022-11-25T04:54:50.111Z,93.20
2022-11-25T04:57:18.041Z,93.00
2022-11-25T04:59:45.676Z,93.20
2022-11-25T05:05:19.624Z,93.10
2022-11-25T05:07:46.684Z,92.90
2022-11-25T05:10:14.635Z,92.90
2022-11-25T05:12:45.640Z,92.90
2022-11-25T05:15:16.578Z,92.90
2022-11-25T05:17:45.798Z,92.90
2022-11-25T05:20:13.955Z,93.10
2022-11-25T05:22:40.789Z,93.10
2022-11-25T05:25:12.756Z,93.00
2022-11-25T05:27:49.535Z,93.00
2022-11-25T05:30:16.572Z,92.90
2022-11-25T05:32:44.283Z,93.10
2022-11-25T05:35:11.376Z,93.30
2022-11-25T05:37:40.029Z,93.20
2022-11-25T05:40:08.454Z,93.30
2022-11-25T05:42:47.113Z,93.30
2022-11-25T05:45:13.912Z,93.20
2022-11-25T05:47:40.705Z,93.30
2022-11-25T05:50:08.135Z,93.20
2022-11-25T05:52:35.333Z,93.40
2022-11-25T05:55:02.234Z,93.50
2022-11-25T05:57:29.262Z,93.40
2022-11-25T06:00:05.576Z,93.40
2022-11-25T06:02:51.152Z,93.30
2022-11-25T06:05:19.172Z,93.60
2022-11-25T06:07:46.266Z,93.80
2022-11-25T06:10:13.413Z,93.80
2022-11-25T06:12:41.341Z,93.90
2022-11-25T06:15:08.920Z,93.90
2022-11-25T06:17:36.604Z,93.80
2022-11-25T06:20:09.763Z,93.80
2022-11-25T06:22:36.737Z,93.80
2022-11-25T06:25:04.240Z,93.70
2022-11-25T06:27:56.894Z,93.70
2022-11-25T06:30:20.571Z,93.60
2022-11-25T06:32:59.995Z,93.70
2022-11-25T06:35:27.389Z,93.70
2022-11-25T06:37:58.156Z,93.70
2022-11-25T06:40:25.037Z,93.70
2022-11-25T06:42:51.841Z,93.80
2022-11-25T06:45:18.709Z,94.00
2022-11-25T06:47:45.596Z,94.20
2022-11-25T06:50:12.392Z,94.30
2022-11-25T06:52:39.206Z,94.40
2022-11-25T06:55:06.890Z,94.40
2022-11-25T06:57:33.671Z,94.50
2022-11-25T07:00:00.493Z,94.50
2022-11-25T07:02:27.410Z,94.70
2022-11-25T07:04:54.393Z,94.70
2022-11-25T07:07:21.186Z,94.70
2022-11-25T07:09:48.004Z,94.60
2022-11-25T07:12:14.792Z,94.60
2022-11-25T07:14:41.700Z,94.60
2022-11-25T07:17:11.996Z,94.40
2022-11-25T07:19:39.309Z,94.20
2022-11-25T07:22:06.210Z,94.10
2022-11-25T07:24:34.097Z,94.00
2022-11-25T07:27:01.093Z,94.20
2022-11-25T07:32:14.884Z,93.80
2022-11-25T07:34:41.722Z,93.90
2022-11-25T07:37:08.521Z,93.80
2022-11-25T07:39:35.587Z,93.90
2022-11-25T07:42:02.539Z,93.90
2022-11-25T07:44:29.327Z,93.90
2022-11-25T07:47:18.824Z,93.70
2022-11-25T07:49:45.638Z,93.70
2022-11-25T07:52:12.602Z,93.70
2022-11-25T07:54:39.464Z,93.90
2022-11-25T07:57:06.292Z,93.80
2022-11-25T07:59:33.102Z,93.80
2022-11-25T08:02:00.035Z,93.60
2022-11-25T08:04:26.936Z,93.70
2022-11-25T08:06:53.856Z,93.60
2022-11-25T08:09:21.460Z,93.70
2022-11-25T08:11:49.473Z,93.60
2022-11-25T08:14:16.394Z,93.40
2022-11-25T08:16:43.229Z,93.40
2022-11-25T08:19:11.679Z,93.30
2022-11-25T08:21:38.508Z,93.30
2022-11-25T08:24:05.834Z,93.30
2022-11-25T08:26:34.711Z,93.20
2022-11-25T08:29:01.811Z,93.20
2022-11-25T08:31:32.747Z,93.20
2022-11-25T08:33:59.608Z,93.20
2022-11-25T08:36:26.905Z,93.20
2022-11-25T08:38:54.176Z,93.20
2022-11-25T08:41:22.979Z,93.20
2022-11-25T08:43:49.963Z,93.30
2022-11-25T08:46:18.491Z,92.90
2022-11-25T08:48:45.482Z,92.70
2022-11-25T08:51:13.265Z,92.80
2022-11-25T08:53:40.186Z,92.80
2022-11-25T08:56:07.105Z,92.60
2022-11-25T08:58:34.081Z,92.50
2022-11-25T09:01:01.308Z,92.30
2022-11-25T09:03:28.270Z,92.20
2022-11-25T09:05:55.198Z,92.10
2022-11-25T09:08:22.038Z,91.70
2022-11-25T09:10:48.904Z,91.80
2022-11-25T09:13:15.693Z,91.70
2022-11-25T09:15:42.708Z,91.50
2022-11-25T09:18:09.898Z,91.40
2022-11-25T09:20:39.716Z,91.20
2022-11-25T09:23:07.718Z,91.20
2022-11-25T09:25:34.848Z,90.80
2022-11-25T09:28:01.879Z,90.80
2022-11-25T09:30:28.886Z,90.70
2022-11-25T09:32:55.917Z,90.70
2022-11-25T09:35:22.895Z,90.70
2022-11-25T09:37:49.665Z,90.50
2022-11-25T09:40:28.567Z,90.40
2022-11-25T09:43:46.385Z,90.30
2022-11-25T09:46:44.790Z,90.30
2022-11-25T09:49:11.660Z,90.60
2022-11-25T09:51:59.991Z,90.30
2022-11-25T09:54:45.069Z,90.30
2022-11-25T09:57:11.865Z,90.50
2022-11-25T09:59:43.050Z,90.30
2022-11-25T10:02:14.737Z,90.30
2022-11-25T10:04:43.384Z,90.20
2022-11-25T10:07:12.459Z,90.40
2022-11-25T10:09:39.553Z,90.30
2022-11-25T10:12:11.604Z,90.20
2022-11-25T10:14:48.530Z,90.00
2022-11-25T10:17:18.260Z,89.10
2022-11-25T10:19:58.974Z,89.40
2022-11-25T10:22:26.127Z,89.30
2022-11-25T10:24:57.121Z,89.50
2022-11-25T10:27:31.319Z,88.90
2022-11-25T10:30:01.687Z,89.50
2022-11-25T10:32:29.780Z,89.90
2022-11-25T10:34:58.038Z,88.10
2022-11-25T10:37:31.929Z,87.30
2022-11-25T10:39:58.754Z,87.40
2022-11-25T10:42:26.453Z,87.50
2022-11-25T10:44:54.981Z,87.40
2022-11-25T10:47:27.084Z,87.40
2022-11-25T10:49:57.093Z,86.40
2022-11-25T10:52:24.069Z,87.50
2022-11-25T10:55:09.572Z,86.10
2022-11-25T10:57:36.502Z,86.70
2022-11-25T11:00:04.715Z,85.50
2022-11-25T11:02:34.378Z,84.10
2022-11-25T11:05:03.965Z,83.70
2022-11-25T11:07:33.313Z,84.40
2022-11-25T11:10:12.169Z,83.70
2022-11-25T11:12:39.232Z,82.10
2022-11-25T11:15:16.350Z,81.80
2022-11-25T11:17:43.286Z,82.50
2022-11-25T11:20:14.554Z,82.00
2022-11-25T11:22:46.274Z,82.70
2022-11-25T11:25:23.374Z,82.70
2022-11-25T11:27:50.179Z,83.40
2022-11-25T11:30:17.821Z,82.80
2022-11-25T11:32:45.070Z,83.70
2022-11-25T11:35:18.036Z,82.80
2022-11-25T11:37:45.782Z,82.20
2022-11-25T11:40:31.309Z,81.70
2022-11-25T11:43:03.038Z,81.80
2022-11-25T11:45:49.048Z,81.50
2022-11-25T11:48:42.204Z,80.80
2022-11-25T11:51:13.366Z,79.50
2022-11-25T11:53:59.075Z,79.70
2022-11-25T11:56:39.249Z,79.10
2022-11-25T11:59:18.957Z,79.80
2022-11-25T12:01:49.293Z,79.80
2022-11-25T12:04:20.870Z,78.60
2022-11-25T12:07:07.856Z,78.10
2022-11-25T12:09:37.273Z,78.10
2022-11-25T12:12:05.445Z,78.00
2022-11-25T12:14:37.422Z,77.40
2022-11-25T12:17:07.326Z,77.00
2022-11-25T12:19:43.547Z,77.60
2022-11-25T12:22:19.825Z,77.20
2022-11-25T12:24:49.347Z,77.30
2022-11-25T12:27:16.103Z,74.80
2022-11-25T12:29:44.689Z,75.50
2022-11-25T12:32:26.552Z,72.40
2022-11-25T12:35:13.647Z,75.10
2022-11-25T12:37:46.564Z,75.60
2022-11-25T12:40:14.604Z,75.90
2022-11-25T12:42:41.404Z,75.20
2022-11-25T12:45:11.244Z,74.20
2022-11-25T12:47:38.058Z,73.40
2022-11-25T12:50:05.149Z,72.40
2022-11-25T12:52:42.836Z,72.40
2022-11-25T12:55:14.012Z,72.40
2022-11-25T12:57:49.225Z,72.40
2022-11-25T13:00:41.039Z,72.50
2022-11-25T13:03:44.256Z,73.90
2022-11-25T13:06:22.840Z,72.40
2022-11-25T13:08:49.692Z,72.40
2022-11-25T13:11:29.023Z,72.40
2022-11-25T13:13:56.430Z,71.60
2022-11-25T13:16:23.993Z,72.40
2022-11-25T13:18:51.214Z,70.30
2022-11-25T13:21:18.528Z,70.20
2022-11-25T13:23:49.046Z,70.00
2022-11-25T13:26:28.643Z,71.10
2022-11-25T13:28:55.871Z,69.90
2022-11-25T13:31:23.536Z,68.80
2022-11-25T13:33:59.818Z,67.90
2022-11-25T13:36:42.842Z,68.30
2022-11-25T13:39:13.977Z,67.80
2022-11-25T13:41:42.248Z,68.40
2022-11-25T13:44:12.030Z,68.20
2022-11-25T13:46:40.321Z,69.10
2022-11-25T13:49:07.436Z,67.90
2022-11-25T13:51:34.315Z,68.30
2022-11-25T13:54:01.539Z,68.90
2022-11-25T13:56:35.160Z,70.00
2022-11-25T13:59:11.184Z,67.40
2022-11-25T14:01:47.035Z,69.30
2022-11-25T14:04:14.091Z,70.30
2022-11-25T14:06:44.168Z,67.80
2022-11-25T14:09:40.370Z,69.20
2022-11-25T14:12:16.199Z,68.10
2022-11-25T14:14:49.635Z,68.70
2022-11-25T14:17:35.358Z,68.00
2022-11-25T14:20:04.650Z,69.10
2022-11-25T14:22:35.825Z,71.60
2022-11-25T14:25:22.231Z,70.90
2022-11-25T14:27:50.612Z,69.70
2022-11-25T14:30:17.758Z,70.00
2022-11-25T14:32:57.728Z,69.10
2022-11-25T14:35:42.070Z,70.60
2022-11-25T14:38:34.670Z,69.80
2022-11-25T14:41:05.998Z,71.80
2022-11-25T14:43:37.002Z,72.30
2022-11-25T14:46:17.347Z,73.10
2022-11-25T14:48:44.244Z,72.90
2022-11-25T14:51:11.549Z,73.50
2022-11-25T14:53:47.538Z,72.30
2022-11-25T14:56:15.945Z,72.20
2022-11-25T14:58:46.409Z,73.60
2022-11-25T15:01:20.331Z,72.20
2022-11-25T15:03:48.000Z,73.70
2022-11-25T15:06:14.996Z,73.10
2022-11-25T15:08:45.544Z,74.50
2022-11-25T15:11:13.734Z,74.10
2022-11-25T15:13:41.128Z,75.20
2022-11-25T15:16:17.917Z,75.80
2022-11-25T15:18:47.219Z,75.90
2022-11-25T15:21:14.106Z,77.50
2022-11-25T15:23:40.879Z,78.70
2022-11-25T15:26:21.273Z,79.40
2022-11-25T15:28:48.150Z,80.00
2022-11-25T15:31:19.356Z,80.10
2022-11-25T15:33:46.822Z,80.70
2022-11-25T15:36:13.687Z,81.20
2022-11-25T15:38:41.744Z,81.80
2022-11-25T15:41:14.837Z,83.20
2022-11-25T15:43:42.217Z,83.00
2022-11-25T15:46:09.269Z,82.60
2022-11-25T15:48:40.536Z,82.70
2022-11-25T15:51:15.327Z,83.50
2022-11-25T15:53:42.172Z,83.40
2022-11-25T15:56:09.700Z,84.20
2022-11-25T15:58:36.703Z,84.60
2022-11-25T16:01:03.587Z,85.00
2022-11-25T16:03:33.450Z,85.50
2022-11-25T16:06:00.381Z,86.20
2022-11-25T16:08:29.389Z,87.00
2022-11-25T16:10:57.178Z,87.20
2022-11-25T16:13:24.014Z,87.80
2022-11-25T16:15:55.625Z,88.70
2022-11-25T16:18:40.136Z,89.00
2022-11-25T16:21:14.938Z,89.50
2022-11-25T16:23:46.832Z,90.10
2022-11-25T16:26:13.871Z,90.20
2022-11-25T16:28:49.957Z,90.30
2022-11-25T16:31:16.955Z,90.40
2022-11-25T16:33:43.852Z,90.40
2022-11-25T16:36:10.632Z,90.50
2022-11-25T16:38:37.395Z,90.70
2022-11-25T16:41:30.679Z,90.80
2022-11-25T16:44:00.857Z,90.90
2022-11-25T16:46:29.550Z,91.00
2022-11-25T16:48:56.581Z,91.00
2022-11-25T16:51:26.554Z,91.10
2022-11-25T16:53:53.352Z,91.10
2022-11-25T16:56:29.308Z,91.10
2022-11-25T16:58:57.140Z,91.30
2022-11-25T17:01:24.994Z,91.30
2022-11-25T17:03:52.378Z,91.50
2022-11-25T17:06:22.125Z,91.50
2022-11-25T17:08:49.576Z,91.60
2022-11-25T17:11:32.537Z,91.70
2022-11-25T17:14:00.433Z,91.80
2022-11-25T17:16:27.745Z,91.80
2022-11-25T17:18:55.302Z,91.80
2022-11-25T17:24:26.237Z,91.90
2022-11-25T17:27:02.932Z,92.00
2022-11-25T17:29:37.142Z,92.10
2022-11-25T17:32:04.070Z,92.10
2022-11-25T17:34:34.893Z,92.10
2022-11-25T17:37:07.183Z,92.10
2022-11-25T17:39:33.937Z,92.10
2022-11-25T17:42:02.332Z,92.00
2022-11-25T17:44:29.305Z,92.20
2022-11-25T17:46:56.589Z,92.30
2022-11-25T17:49:23.516Z,92.60
2022-11-25T17:51:50.578Z,92.40
2022-11-25T17:54:17.413Z,92.60
2022-11-25T17:56:47.793Z,92.50
2022-11-25T17:59:28.791Z,92.50
2022-11-25T18:01:56.294Z,92.40
2022-11-25T18:04:23.576Z,92.50
2022-11-25T18:06:50.564Z,92.50
2022-11-25T18:09:17.479Z,92.40
2022-11-25T18:11:46.637Z,92.50
2022-11-25T18:17:26.307Z,92.50
2022-11-25T18:19:55.181Z,92.60
2022-11-25T18:22:24.137Z,92.60
2022-11-25T18:24:51.123Z,92.60
2022-11-25T18:27:25.013Z,92.50
2022-11-25T18:29:51.913Z,92.50
2022-11-25T18:32:18.768Z,92.50
2022-11-25T18:34:45.826Z,92.50
2022-11-25T18:40:25.379Z,92.50
2022-11-25T18:42:53.490Z,92.40
2022-11-25T18:45:21.135Z,92.50
2022-11-25T18:47:48.006Z,92.50
2022-11-25T18:50:15.476Z,92.60
2022-11-25T18:52:42.364Z,92.50
2022-11-25T18:55:09.560Z,92.50
2022-11-25T18:57:36.357Z,92.60
2022-11-25T19:00:30.926Z,92.70
2022-11-25T19:02:50.115Z,92.70
2022-11-25T19:05:21.336Z,92.70
2022-11-25T19:07:48.567Z,92.60
2022-11-25T19:10:16.096Z,92.60
2022-11-25T19:12:44.661Z,92.60
2022-11-25T19:15:12.820Z,92.50
2022-11-25T19:20:40.329Z,92.60
2022-11-25T19:23:17.224Z,92.60
2022-11-25T19:25:44.208Z,92.80
2022-11-25T19:28:11.210Z,92.90
2022-11-25T19:30:38.020Z,92.90
2022-11-25T19:33:04.866Z,92.90
2022-11-25T19:35:33.045Z,92.80
2022-11-25T19:37:59.770Z,93.00
2022-11-25T19:40:26.675Z,93.00
2022-11-25T19:42:53.469Z,93.10
2022-11-25T19:45:20.560Z,93.10
2022-11-25T19:47:48.761Z,93.10
2022-11-25T19:50:16.705Z,93.10
2022-11-25T19:52:43.534Z,93.30
2022-11-25T19:55:14.170Z,93.10
2022-11-25T19:57:40.985Z,93.50
2022-11-25T20:00:08.037Z,93.60
2022-11-25T20:02:35.324Z,93.70
2022-11-25T20:05:02.232Z,93.90
2022-11-25T20:07:31.131Z,94.00
2022-11-25T20:09:59.250Z,94.10
2022-11-25T20:12:26.769Z,94.00
2022-11-25T20:14:53.594Z,94.00
2022-11-25T20:17:21.885Z,93.80
2022-11-25T20:19:48.802Z,93.70
2022-11-25T20:22:16.299Z,93.50
2022-11-25T20:24:43.089Z,93.30
2022-11-25T20:27:11.252Z,93.30
2022-11-25T20:29:38.036Z,93.20
2022-11-25T20:32:17.582Z,93.30
2022-11-25T20:34:44.759Z,93.30
2022-11-25T20:37:13.760Z,93.70
2022-11-25T20:39:40.939Z,93.30
2022-11-25T20:42:08.443Z,93.30
2022-11-25T20:44:35.559Z,93.30
2022-11-25T20:47:02.544Z,93.30
2022-11-25T20:49:29.504Z,93.30
2022-11-25T20:51:56.645Z,93.30
2022-11-25T20:54:26.484Z,93.30
2022-11-25T20:56:53.372Z,93.30
2022-11-25T20:59:21.709Z,93.30
2022-11-25T21:01:49.314Z,93.30
2022-11-25T21:04:16.265Z,93.60
2022-11-25T21:06:43.138Z,93.30
2022-11-25T21:09:13.517Z,93.50
2022-11-25T21:11:40.322Z,93.40
2022-11-25T21:14:11.123Z,93.30
2022-11-25T21:16:38.030Z,93.50
2022-11-25T21:19:04.810Z,93.50
2022-11-25T21:21:32.093Z,93.50
2022-11-25T21:23:58.919Z,93.50
2022-11-25T21:26:25.929Z,93.50
2022-11-25T21:28:53.303Z,93.40
2022-11-25T21:31:21.207Z,93.40
2022-11-25T21:33:48.416Z,93.30
2022-11-25T21:36:17.582Z,93.50
2022-11-25T21:38:44.366Z,93.50
2022-11-25T21:41:11.274Z,93.30
2022-11-25T21:43:39.824Z,93.30
2022-11-25T21:46:07.557Z,93.20
2022-11-25T21:48:34.386Z,93.40
2022-11-25T21:51:01.195Z,93.50
2022-11-25T21:53:30.060Z,93.40
2022-11-25T21:55:58.808Z,93.40
2022-11-25T21:58:26.045Z,93.40
2022-11-25T22:00:53.627Z,93.20
2022-11-25T22:03:20.641Z,93.20
2022-11-25T22:05:47.638Z,93.20
2022-11-25T22:08:14.521Z,93.20
2022-11-25T22:10:42.222Z,93.20
2022-11-25T22:13:11.853Z,93.20
2022-11-25T22:15:38.661Z,93.20
2022-11-25T22:18:05.428Z,93.20
2022-11-25T22:20:36.305Z,93.20
2022-11-25T22:23:05.849Z,93.20
2022-11-25T22:25:32.620Z,93.10
2022-11-25T22:27:59.492Z,93.10
2022-11-25T22:30:26.316Z,93.20
2022-11-25T22:32:57.365Z,93.40
2022-11-25T22:35:24.264Z,93.60
2022-11-25T22:37:55.178Z,93.70
2022-11-25T22:40:22.532Z,93.60
2022-11-25T22:42:49.597Z,93.50
2022-11-25T22:45:42.851Z,93.20
2022-11-25T22:48:10.273Z,93.30
2022-11-25T22:50:37.267Z,93.10
2022-11-25T22:53:06.072Z,93.10
2022-11-25T22:55:33.141Z,93.10
2022-11-25T22:58:00.466Z,93.10
2022-11-25T23:00:28.119Z,93.10
2022-11-25T23:02:56.204Z,93.10
2022-11-25T23:05:30.545Z,93.00
2022-11-25T23:07:59.323Z,93.00
2022-11-25T23:10:26.997Z,93.00
2022-11-25T23:12:53.816Z,93.00
2022-11-25T23:15:20.982Z,93.00
2022-11-25T23:17:54.411Z,93.00
2022-11-25T23:20:22.836Z,93.00
2022-11-25T23:22:49.617Z,93.00
2022-11-25T23:25:17.640Z,93.00
2022-11-25T23:27:44.421Z,93.00
2022-11-25T23:30:18.165Z,93.40
2022-11-25T23:32:45.260Z,93.00
2022-11-25T23:35:15.961Z,93.00
2022-11-25T23:37:42.776Z,93.00
2022-11-25T23:40:14.085Z,93.20
2022-11-25T23:42:40.862Z,93.20
2022-11-25T23:45:08.997Z,93.10
2022-11-25T23:47:35.827Z,93.10
2022-11-25T23:50:02.555Z,93.10
2022-11-25T23:52:29.560Z,93.00
2022-11-25T23:54:56.326Z,93.10
2022-11-25T23:57:24.134Z,93.00
2022-11-25T23:59:50.987Z,93.00
